createdAt,value
2019-02-11T00:00:21.219Z,19.9
2019-02-11T00:01:11.497Z,19.9
2019-02-11T00:02:01.642Z,19.8
2019-02-11T00:02:51.601Z,19.8
2019-02-11T00:03:41.387Z,19.8
2019-02-11T00:04:31.454Z,19.8
2019-02-11T00:05:21.236Z,19.8
2019-02-11T00:06:11.862Z,19.8
2019-02-11T00:07:01.373Z,19.8
2019-02-11T00:07:51.419Z,19.7
2019-02-11T00:08:42.016Z,19.7
2019-02-11T00:09:31.519Z,19.8
2019-02-11T00:10:22.156Z,19.8
2019-02-11T00:11:12.539Z,19.8
2019-02-11T00:12:01.141Z,19.8
2019-02-11T00:12:51.757Z,19.8
2019-02-11T00:13:42.424Z,19.9
2019-02-11T00:14:31.876Z,19.9
2019-02-11T00:15:21.643Z,19.9
2019-02-11T00:16:12.548Z,19.9
2019-02-11T00:17:02.933Z,19.9
2019-02-11T00:17:52.708Z,19.9
2019-02-11T00:18:42.775Z,20
2019-02-11T00:19:33.123Z,19.9
2019-02-11T00:20:22.613Z,19.9
2019-02-11T00:21:12.323Z,19.9
2019-02-11T00:22:03.245Z,20
2019-02-11T00:22:52.463Z,19.9
2019-02-11T00:23:42.778Z,19.9
2019-02-11T00:24:32.580Z,19.9
2019-02-11T00:25:22.072Z,19.9
2019-02-11T00:26:12.428Z,19.9
2019-02-11T00:27:02.490Z,19.9
2019-02-11T00:27:53.182Z,19.9
2019-02-11T00:28:43.465Z,19.9
2019-02-11T00:29:33.532Z,19.9
2019-02-11T00:30:23.790Z,19.8
2019-02-11T00:31:14.116Z,19.8
2019-02-11T00:32:03.977Z,19.8
2019-02-11T00:32:54.333Z,19.8
2019-02-11T00:33:43.780Z,19.8
2019-02-11T00:34:33.329Z,19.8
2019-02-11T00:35:23.332Z,19.8
2019-02-11T00:36:13.109Z,19.8
2019-02-11T00:37:04.039Z,19.8
2019-02-11T00:37:53.534Z,19.8
2019-02-11T00:38:43.859Z,19.8
2019-02-11T00:39:33.772Z,19.8
2019-02-11T00:40:23.687Z,19.8
2019-02-11T00:41:13.489Z,19.9
2019-02-11T00:42:03.258Z,19.8
2019-02-11T00:42:54.156Z,19.8
2019-02-11T00:43:44.194Z,19.8
2019-02-11T00:44:33.404Z,19.7
2019-02-11T00:45:24.024Z,19.6
2019-02-11T00:46:14.353Z,19.6
2019-02-11T00:47:04.177Z,19.8
2019-02-11T00:47:53.913Z,19.9
2019-02-11T00:48:44.272Z,20
2019-02-11T00:49:33.498Z,20.1
2019-02-11T00:50:24.994Z,20.1
2019-02-11T00:51:14.426Z,20.2
2019-02-11T00:52:04.231Z,20.3
2019-02-11T00:52:55.393Z,20.4
2019-02-11T00:53:43.783Z,20.6
2019-02-11T00:54:34.948Z,20.7
2019-02-11T00:55:25.350Z,20.8
2019-02-11T00:56:15.328Z,20.9
2019-02-11T00:57:05.411Z,21
2019-02-11T00:57:55.470Z,21.1
2019-02-11T00:58:44.693Z,21.2
2019-02-11T00:59:35.044Z,21.2
2019-02-11T01:00:24.878Z,21.3
2019-02-11T01:01:16.020Z,21.3
2019-02-11T01:02:04.634Z,21.3
2019-02-11T01:02:55.810Z,21.3
2019-02-11T01:03:45.888Z,21.3
2019-02-11T01:04:35.670Z,21.4
2019-02-11T01:05:25.445Z,21.4
2019-02-11T01:06:15.231Z,21.4
2019-02-11T01:07:07.642Z,21.4
2019-02-11T01:07:55.615Z,21.4
2019-02-11T01:08:45.398Z,21.4
2019-02-11T01:09:36.261Z,21.4
2019-02-11T01:10:25.552Z,21.4
2019-02-11T01:11:16.192Z,21.3
2019-02-11T01:12:05.898Z,21.4
2019-02-11T01:12:55.387Z,21.4
2019-02-11T01:13:45.799Z,21.4
2019-02-11T01:14:35.248Z,21.4
2019-02-11T01:15:25.289Z,21.4
2019-02-11T01:16:16.742Z,21.4
2019-02-11T01:17:06.252Z,21.4
2019-02-11T01:17:56.634Z,21.5
2019-02-11T01:18:45.884Z,21.5
2019-02-11T01:19:36.974Z,21.6
2019-02-11T01:20:26.489Z,21.6
2019-02-11T01:21:16.251Z,21.7
2019-02-11T01:22:07.186Z,21.8
2019-02-11T01:22:56.375Z,21.8
2019-02-11T01:23:45.881Z,21.8
2019-02-11T01:24:36.762Z,21.8
2019-02-11T01:25:26.546Z,21.8
2019-02-11T01:26:17.163Z,21.9
2019-02-11T01:27:07.494Z,21.9
2019-02-11T01:27:57.294Z,21.8
2019-02-11T01:28:47.396Z,21.8
2019-02-11T01:29:37.126Z,21.8
2019-02-11T01:30:27.784Z,21.8
2019-02-11T01:31:16.978Z,21.8
2019-02-11T01:32:07.278Z,21.8
2019-02-11T01:32:57.071Z,21.7
2019-02-11T01:33:48.010Z,21.7
2019-02-11T01:34:37.481Z,21.7
2019-02-11T01:35:28.078Z,21.6
2019-02-11T01:36:17.298Z,21.6
2019-02-11T01:37:07.087Z,21.6
2019-02-11T01:37:58.013Z,21.6
2019-02-11T01:38:48.050Z,21.6
2019-02-11T01:39:37.622Z,21.6
2019-02-11T01:40:27.938Z,21.6
2019-02-11T01:41:17.940Z,21.6
2019-02-11T01:42:07.805Z,21.6
2019-02-11T01:42:58.345Z,21.6
2019-02-11T01:43:48.646Z,21.6
2019-02-11T01:44:37.888Z,21.6
2019-02-11T01:45:28.245Z,21.6
2019-02-11T01:46:18.586Z,21.7
2019-02-11T01:47:07.836Z,21.7
2019-02-11T01:47:57.866Z,21.8
2019-02-11T01:48:49.022Z,21.8
2019-02-11T01:49:39.089Z,21.8
2019-02-11T01:50:28.872Z,21.8
2019-02-11T01:51:19.252Z,21.8
2019-02-11T01:52:08.210Z,21.9
2019-02-11T01:52:59.673Z,21.9
2019-02-11T01:53:49.399Z,21.9
2019-02-11T01:54:39.705Z,21.9
2019-02-11T01:55:28.934Z,22
2019-02-11T01:56:19.070Z,22
2019-02-11T01:57:09.041Z,21.9
2019-02-11T01:57:59.658Z,21.9
2019-02-11T01:58:48.941Z,21.9
2019-02-11T01:59:39.511Z,21.9
2019-02-11T02:00:29.014Z,21.9
2019-02-11T02:01:19.596Z,21.8
2019-02-11T02:02:09.684Z,21.8
2019-02-11T02:02:59.781Z,21.8
2019-02-11T02:03:49.806Z,21.8
2019-02-11T02:04:40.141Z,21.8
2019-02-11T02:05:29.366Z,21.7
2019-02-11T02:06:20.244Z,21.7
2019-02-11T02:07:10.318Z,21.7
2019-02-11T02:08:00.086Z,21.7
2019-02-11T02:08:50.426Z,21.6
2019-02-11T02:09:39.649Z,21.6
2019-02-11T02:10:29.983Z,21.6
2019-02-11T02:11:20.046Z,21.6
2019-02-11T02:12:10.388Z,21.6
2019-02-11T02:12:59.333Z,21.7
2019-02-11T02:13:50.948Z,21.7
2019-02-11T02:14:40.537Z,21.8
2019-02-11T02:15:30.371Z,21.8
2019-02-11T02:16:20.953Z,21.8
2019-02-11T02:17:10.185Z,21.8
2019-02-11T02:18:00.553Z,21.8
2019-02-11T02:18:50.290Z,21.8
2019-02-11T02:19:40.074Z,21.9
2019-02-11T02:20:31.235Z,21.9
2019-02-11T02:21:21.313Z,21.9
2019-02-11T02:22:10.100Z,21.9
2019-02-11T02:23:01.477Z,22
2019-02-11T02:23:51.483Z,22
2019-02-11T02:24:40.973Z,22
2019-02-11T02:25:31.860Z,22
2019-02-11T02:26:20.908Z,21.9
2019-02-11T02:27:11.165Z,21.9
2019-02-11T02:28:01.497Z,21.9
2019-02-11T02:28:51.275Z,21.9
2019-02-11T02:29:41.891Z,21.9
2019-02-11T02:30:31.253Z,21.8
2019-02-11T02:31:21.452Z,21.8
2019-02-11T02:32:11.819Z,21.8
2019-02-11T02:33:02.238Z,21.8
2019-02-11T02:33:52.199Z,21.8
2019-02-11T02:34:42.030Z,21.7
2019-02-11T02:35:31.794Z,21.7
2019-02-11T02:36:21.872Z,21.6
2019-02-11T02:37:12.734Z,21.6
2019-02-11T02:38:02.535Z,21.6
2019-02-11T02:38:52.702Z,21.6
2019-02-11T02:39:42.316Z,21.7
2019-02-11T02:40:32.469Z,21.7
2019-02-11T02:41:22.204Z,21.8
2019-02-11T02:42:12.850Z,21.8
2019-02-11T02:43:02.896Z,21.8
2019-02-11T02:44:02.569Z,21.8
2019-02-11T02:44:41.962Z,21.8
2019-02-11T02:45:31.736Z,21.8
2019-02-11T02:46:21.825Z,21.8
2019-02-11T02:47:12.107Z,21.8
2019-02-11T02:48:02.178Z,21.8
2019-02-11T02:48:52.811Z,21.7
2019-02-11T02:49:42.827Z,21.7
2019-02-11T02:50:32.903Z,21.6
2019-02-11T02:51:22.997Z,21.6
2019-02-11T02:52:12.268Z,21.6
2019-02-11T02:53:03.109Z,21.7
2019-02-11T02:53:52.854Z,21.7
2019-02-11T02:54:42.910Z,21.7
2019-02-11T02:55:32.683Z,21.8
2019-02-11T02:56:22.515Z,21.8
2019-02-11T02:57:13.403Z,21.8
2019-02-11T02:58:02.903Z,21.8
2019-02-11T02:58:53.280Z,21.8
2019-02-11T02:59:43.204Z,21.9
2019-02-11T03:00:33.862Z,21.9
2019-02-11T03:01:24.138Z,21.9
2019-02-11T03:02:13.655Z,21.9
2019-02-11T03:03:03.187Z,21.9
2019-02-11T03:03:53.388Z,22
2019-02-11T03:04:43.862Z,22.1
2019-02-11T03:08:16.275Z,22
2019-02-11T03:09:06.048Z,22
2019-02-11T03:09:56.957Z,21.9
2019-02-11T03:10:46.957Z,21.9
2019-02-11T03:11:36.822Z,21.9
2019-02-11T03:12:26.789Z,21.9
2019-02-11T03:13:16.850Z,21.8
2019-02-11T03:14:12.972Z,21.8
2019-02-11T03:14:56.769Z,21.8
2019-02-11T03:15:47.342Z,21.8
2019-02-11T03:16:35.721Z,21.8
2019-02-11T03:17:27.434Z,21.7
2019-02-11T03:18:17.225Z,21.7
2019-02-11T03:19:06.997Z,21.7
2019-02-11T03:19:56.783Z,21.7
2019-02-11T03:20:47.106Z,21.7
2019-02-11T03:21:37.429Z,21.7
2019-02-11T03:22:27.480Z,21.7
2019-02-11T03:23:17.306Z,21.8
2019-02-11T03:24:07.627Z,21.8
2019-02-11T03:24:57.106Z,21.8
2019-02-11T03:25:47.775Z,21.9
2019-02-11T03:26:37.478Z,21.9
2019-02-11T03:27:27.591Z,21.9
2019-02-11T03:28:17.898Z,21.9
2019-02-11T03:29:07.730Z,22
2019-02-11T03:29:58.128Z,22
2019-02-11T03:30:47.959Z,22
2019-02-11T03:31:38.630Z,22
2019-02-11T03:32:28.119Z,22
2019-02-11T03:33:18.607Z,22.1
2019-02-11T03:34:08.366Z,22.1
2019-02-11T03:34:58.398Z,22.1
2019-02-11T03:35:48.419Z,22.1
2019-02-11T03:36:38.266Z,22.1
2019-02-11T03:37:28.805Z,22
2019-02-11T03:38:18.651Z,22
2019-02-11T03:39:08.993Z,22
2019-02-11T03:39:58.742Z,22
2019-02-11T03:40:49.056Z,21.9
2019-02-11T03:41:38.828Z,21.9
2019-02-11T03:42:28.882Z,21.9
2019-02-11T03:43:19.258Z,21.9
2019-02-11T03:44:18.876Z,21.8
2019-02-11T03:44:58.537Z,21.8
2019-02-11T03:45:49.146Z,21.8
2019-02-11T03:46:38.945Z,21.8
2019-02-11T03:47:29.262Z,21.8
2019-02-11T03:48:19.057Z,21.8
2019-02-11T03:49:08.944Z,21.7
2019-02-11T03:49:58.650Z,21.7
2019-02-11T03:50:48.720Z,21.8
2019-02-11T03:51:38.513Z,21.8
2019-02-11T03:52:28.626Z,21.8
2019-02-11T03:53:19.489Z,21.9
2019-02-11T03:54:08.945Z,21.9
2019-02-11T03:54:59.854Z,21.9
2019-02-11T03:55:49.359Z,21.9
2019-02-11T03:56:39.152Z,22
2019-02-11T03:57:29.230Z,22
2019-02-11T03:58:19.292Z,22.1
2019-02-11T03:59:09.941Z,22.1
2019-02-11T03:59:59.706Z,22.1
2019-02-11T04:00:49.904Z,22.1
2019-02-11T04:01:39.971Z,22.1
2019-02-11T04:02:30.026Z,22.2
2019-02-11T04:03:20.389Z,22.2
2019-02-11T04:04:10.234Z,22.3
2019-02-11T04:05:00.280Z,22.3
2019-02-11T04:05:49.704Z,22.2
2019-02-11T04:06:40.324Z,22.2
2019-02-11T04:07:30.136Z,22.1
2019-02-11T04:08:19.863Z,22.1
2019-02-11T04:09:11.144Z,22.1
2019-02-11T04:10:01.035Z,22
2019-02-11T04:10:50.620Z,22
2019-02-11T04:11:40.950Z,22
2019-02-11T04:12:30.798Z,21.9
2019-02-11T04:13:20.808Z,21.9
2019-02-11T04:14:11.149Z,21.9
2019-02-11T04:15:01.718Z,21.9
2019-02-11T04:15:50.993Z,21.9
2019-02-11T04:16:41.278Z,21.8
2019-02-11T04:17:30.534Z,21.8
2019-02-11T04:18:21.715Z,21.8
2019-02-11T04:19:11.849Z,21.8
2019-02-11T04:20:01.733Z,21.8
2019-02-11T04:20:54.098Z,21.8
2019-02-11T04:21:41.460Z,21.8
2019-02-11T04:22:31.698Z,21.9
2019-02-11T04:23:21.830Z,21.9
2019-02-11T04:24:12.189Z,21.9
2019-02-11T04:25:01.448Z,21.9
2019-02-11T04:25:51.762Z,21.9
2019-02-11T04:26:41.730Z,22
2019-02-11T04:27:31.194Z,22
2019-02-11T04:28:22.412Z,22.1
2019-02-11T04:29:12.444Z,22.1
2019-02-11T04:30:02.260Z,22.1
2019-02-11T04:30:52.707Z,22.1
2019-02-11T04:31:42.138Z,22.2
2019-02-11T04:32:31.887Z,22.2
2019-02-11T04:33:22.257Z,22.2
2019-02-11T04:34:11.740Z,22.2
2019-02-11T04:35:02.189Z,22.2
2019-02-11T04:35:52.399Z,22.2
2019-02-11T04:36:42.771Z,22.2
2019-02-11T04:37:32.467Z,22.2
2019-02-11T04:38:22.811Z,22.1
2019-02-11T04:39:12.603Z,22.1
2019-02-11T04:40:02.281Z,22.1
2019-02-11T04:40:52.741Z,21.9
2019-02-11T04:41:42.740Z,21.9
2019-02-11T04:42:32.312Z,21.9
2019-02-11T04:43:23.526Z,21.9
2019-02-11T04:44:12.967Z,21.9
2019-02-11T04:45:03.288Z,21.9
2019-02-11T04:45:53.329Z,21.9
2019-02-11T04:46:43.388Z,21.9
2019-02-11T04:47:32.688Z,21.8
2019-02-11T04:48:23.266Z,21.6
2019-02-11T04:49:13.338Z,21.5
2019-02-11T04:50:03.805Z,21.4
2019-02-11T04:50:53.717Z,21.4
2019-02-11T04:51:43.192Z,21.3
2019-02-11T04:52:34.122Z,21.3
2019-02-11T04:53:23.601Z,21.3
2019-02-11T04:54:13.999Z,21.2
2019-02-11T04:55:04.175Z,21.2
2019-02-11T04:56:44.116Z,21.1
2019-02-11T04:57:34.458Z,21.1
2019-02-11T04:58:23.674Z,21.1
2019-02-11T04:59:14.117Z,21.1
2019-02-11T05:00:04.913Z,21.1
2019-02-11T05:00:54.388Z,20.9
2019-02-11T05:01:43.634Z,21
2019-02-11T05:02:33.437Z,20.9
2019-02-11T05:03:24.325Z,20.9
2019-02-11T05:04:14.930Z,20.9
2019-02-11T05:05:04.649Z,20.9
2019-02-11T05:05:55.046Z,20.9
2019-02-11T05:06:45.217Z,20.9
2019-02-11T05:07:34.687Z,20.9
2019-02-11T05:08:24.770Z,20.9
2019-02-11T05:09:15.310Z,20.9
2019-02-11T05:10:05.367Z,20.9
2019-02-11T05:10:55.100Z,20.9
2019-02-11T05:11:45.171Z,20.9
2019-02-11T05:12:34.995Z,20.9
2019-02-11T05:13:25.600Z,20.9
2019-02-11T05:14:15.432Z,20.9
2019-02-11T05:15:05.182Z,21
2019-02-11T05:15:55.274Z,21
2019-02-11T05:16:45.259Z,21
2019-02-11T05:17:35.569Z,21
2019-02-11T05:18:25.377Z,21
2019-02-11T05:19:15.996Z,21
2019-02-11T05:20:04.947Z,21
2019-02-11T05:20:56.282Z,21
2019-02-11T05:21:45.070Z,21
2019-02-11T05:22:35.642Z,21
2019-02-11T05:23:26.007Z,21
2019-02-11T05:24:16.356Z,21
2019-02-11T05:25:06.434Z,20.9
2019-02-11T05:25:56.002Z,20.9
2019-02-11T05:26:46.245Z,20.9
2019-02-11T05:27:35.776Z,20.8
2019-02-11T05:28:26.374Z,20.8
2019-02-11T05:29:15.855Z,20.8
2019-02-11T05:30:06.616Z,20.8
2019-02-11T05:30:55.662Z,20.8
2019-02-11T05:31:46.913Z,20.8
2019-02-11T05:32:36.438Z,20.8
2019-02-11T05:33:26.901Z,20.7
2019-02-11T05:34:16.588Z,20.7
2019-02-11T05:35:07.520Z,20.7
2019-02-11T05:35:56.618Z,20.7
2019-02-11T05:36:46.356Z,20.7
2019-02-11T05:37:36.980Z,20.6
2019-02-11T05:38:26.503Z,20.6
2019-02-11T05:39:16.645Z,20.6
2019-02-11T05:40:07.378Z,20.6
2019-02-11T05:40:56.954Z,20.6
2019-02-11T05:41:47.088Z,20.7
2019-02-11T05:42:37.048Z,20.7
2019-02-11T05:43:27.442Z,20.7
2019-02-11T05:44:16.608Z,20.8
2019-02-11T05:45:07.595Z,20.8
2019-02-11T05:45:57.571Z,20.8
2019-02-11T05:46:47.867Z,20.8
2019-02-11T05:47:37.703Z,20.8
2019-02-11T05:48:26.885Z,20.8
2019-02-11T05:49:17.782Z,20.8
2019-02-11T05:50:07.375Z,20.8
2019-02-11T05:50:57.629Z,20.8
2019-02-11T05:51:48.305Z,20.8
2019-02-11T05:52:38.354Z,20.8
2019-02-11T05:53:27.845Z,20.9
2019-02-11T05:54:18.430Z,20.9
2019-02-11T05:55:07.948Z,20.8
2019-02-11T05:55:58.026Z,20.8
2019-02-11T05:56:48.299Z,20.8
2019-02-11T05:57:37.588Z,20.8
2019-02-11T05:58:28.477Z,20.8
2019-02-11T05:59:18.171Z,20.8
2019-02-11T06:00:08.231Z,20.8
2019-02-11T06:00:58.059Z,20.8
2019-02-11T06:01:48.689Z,20.7
2019-02-11T06:02:38.417Z,20.8
2019-02-11T06:03:28.876Z,20.9
2019-02-11T06:04:18.044Z,20.9
2019-02-11T06:06:15.898Z,20.9
2019-02-11T06:07:05.849Z,20.8
2019-02-11T06:07:56.765Z,20.8
2019-02-11T06:08:45.682Z,20.8
2019-02-11T06:09:36.273Z,20.8
2019-02-11T06:10:26.141Z,20.8
2019-02-11T06:11:15.883Z,20.8
2019-02-11T06:12:06.798Z,20.8
2019-02-11T06:12:57.044Z,20.8
2019-02-11T06:13:46.243Z,20.9
2019-02-11T06:14:36.399Z,20.9
2019-02-11T06:15:26.663Z,20.9
2019-02-11T06:16:17.043Z,20.9
2019-02-11T06:17:07.065Z,20.9
2019-02-11T06:17:56.356Z,20.9
2019-02-11T06:18:45.605Z,20.9
2019-02-11T06:19:36.108Z,20.9
2019-02-11T06:20:27.043Z,20.9
2019-02-11T06:21:17.328Z,20.9
2019-02-11T06:22:07.655Z,20.9
2019-02-11T06:22:56.910Z,20.9
2019-02-11T06:23:46.958Z,20.9
2019-02-11T06:24:37.278Z,20.9
2019-02-11T06:25:27.870Z,20.9
2019-02-11T06:26:17.943Z,20.9
2019-02-11T06:27:07.079Z,20.9
2019-02-11T06:27:57.255Z,20.8
2019-02-11T06:28:47.667Z,20.8
2019-02-11T06:29:37.937Z,20.8
2019-02-11T06:30:27.465Z,20.8
2019-02-11T06:31:17.767Z,20.8
2019-02-11T06:32:08.472Z,20.8
2019-02-11T06:32:57.612Z,20.8
2019-02-11T06:33:47.397Z,20.8
2019-02-11T06:34:39.302Z,20.8
2019-02-11T06:35:28.072Z,20.8
2019-02-11T06:36:18.862Z,20.8
2019-02-11T06:37:07.663Z,20.8
2019-02-11T06:37:57.971Z,20.8
2019-02-11T06:38:48.327Z,20.8
2019-02-11T06:39:38.637Z,20.9
2019-02-11T06:40:28.497Z,20.9
2019-02-11T06:41:17.921Z,20.9
2019-02-11T06:42:08.581Z,20.9
2019-02-11T06:42:58.569Z,20.9
2019-02-11T06:43:48.646Z,20.9
2019-02-11T06:44:38.448Z,20.9
2019-02-11T06:45:28.444Z,20.9
2019-02-11T06:46:18.531Z,20.9
2019-02-11T06:47:09.414Z,20.8
2019-02-11T06:47:59.489Z,20.8
2019-02-11T06:48:48.977Z,20.8
2019-02-11T06:49:38.761Z,20.8
2019-02-11T06:50:29.104Z,20.8
2019-02-11T06:51:18.616Z,20.8
2019-02-11T06:52:08.088Z,20.8
2019-02-11T06:52:59.331Z,20.8
2019-02-11T06:53:48.778Z,20.8
2019-02-11T06:54:39.151Z,20.8
2019-02-11T06:55:28.378Z,20.8
2019-02-11T06:56:18.958Z,20.8
2019-02-11T06:57:11.280Z,20.8
2019-02-11T06:57:59.950Z,20.8
2019-02-11T06:58:49.387Z,20.8
2019-02-11T06:59:40.005Z,20.8
2019-02-11T07:00:29.028Z,20.8
2019-02-11T07:01:33.963Z,20.8
2019-02-11T07:02:09.628Z,20.8
2019-02-11T07:02:59.442Z,20.8
2019-02-11T07:03:49.763Z,20.7
2019-02-11T07:06:15.977Z,20.7
2019-02-11T07:07:06.287Z,20.6
2019-02-11T07:07:56.070Z,20.6
2019-02-11T07:08:46.145Z,20.6
2019-02-11T07:09:36.785Z,20.6
2019-02-11T07:10:26.535Z,20.6
2019-02-11T07:11:15.520Z,20.6
2019-02-11T07:12:05.832Z,20.6
2019-02-11T07:12:56.707Z,20.6
2019-02-11T07:13:46.767Z,20.6
2019-02-11T07:14:36.827Z,20.6
2019-02-11T07:15:29.039Z,20.6
2019-02-11T07:16:17.001Z,20.6
2019-02-11T07:17:06.465Z,20.6
2019-02-11T07:17:56.521Z,20.6
2019-02-11T07:18:46.852Z,20.6
2019-02-11T07:19:37.157Z,20.7
2019-02-11T07:20:26.507Z,20.7
2019-02-11T07:21:16.441Z,20.7
2019-02-11T07:22:07.094Z,20.6
2019-02-11T07:22:56.564Z,20.7
2019-02-11T07:23:46.911Z,20.7
2019-02-11T07:24:37.804Z,20.7
2019-02-11T07:25:27.328Z,20.6
2019-02-11T07:26:17.360Z,20.6
2019-02-11T07:27:07.411Z,20.6
2019-02-11T07:27:57.801Z,20.6
2019-02-11T07:28:47.850Z,20.6
2019-02-11T07:29:37.291Z,20.6
2019-02-11T07:30:26.328Z,20.6
2019-02-11T07:31:17.958Z,20.6
2019-02-11T07:32:08.056Z,20.6
2019-02-11T07:32:58.417Z,20.6
2019-02-11T07:33:46.783Z,20.6
2019-02-11T07:34:37.131Z,20.6
2019-02-11T07:35:28.577Z,20.6
2019-02-11T07:36:20.226Z,20.6
2019-02-11T07:37:08.202Z,20.6
2019-02-11T07:37:59.012Z,20.6
2019-02-11T07:38:48.023Z,20.6
2019-02-11T07:39:38.308Z,20.6
2019-02-11T07:40:28.093Z,20.6
2019-02-11T07:41:18.658Z,20.6
2019-02-11T07:42:10.148Z,20.6
2019-02-11T07:42:57.947Z,20.6
2019-02-11T07:43:47.778Z,20.6
2019-02-11T07:44:37.505Z,20.6
2019-02-11T07:45:36.916Z,20.7
2019-02-11T07:46:19.005Z,20.6
2019-02-11T07:47:08.780Z,20.7
2019-02-11T07:47:58.863Z,20.6
2019-02-11T07:48:48.100Z,20.6
2019-02-11T07:49:38.502Z,20.6
2019-02-11T07:50:28.552Z,20.6
2019-02-11T07:51:18.350Z,20.6
2019-02-11T07:52:09.210Z,20.6
2019-02-11T07:52:59.013Z,20.6
2019-02-11T07:53:49.027Z,20.6
2019-02-11T07:54:39.647Z,20.6
2019-02-11T07:55:29.104Z,20.6
2019-02-11T07:56:20.054Z,20.6
2019-02-11T07:57:09.495Z,20.6
2019-02-11T07:57:59.539Z,20.6
2019-02-11T07:58:49.352Z,20.6
2019-02-11T07:59:39.952Z,20.6
2019-02-11T08:00:30.031Z,20.6
2019-02-11T08:01:20.019Z,20.6
2019-02-11T08:02:09.611Z,20.6
2019-02-11T08:03:00.209Z,20.6
2019-02-11T08:03:49.969Z,20.6
2019-02-11T08:04:40.369Z,20.6
2019-02-11T08:05:29.868Z,20.6
2019-02-11T08:06:20.439Z,20.6
2019-02-11T08:07:09.689Z,20.6
2019-02-11T08:08:00.528Z,20.6
2019-02-11T08:08:50.626Z,20.6
2019-02-11T08:09:39.806Z,20.6
2019-02-11T08:10:30.174Z,20.6
2019-02-11T08:11:20.473Z,20.6
2019-02-11T08:12:09.849Z,20.7
2019-02-11T08:13:00.659Z,20.6
2019-02-11T08:13:49.608Z,20.6
2019-02-11T08:14:40.983Z,20.6
2019-02-11T08:15:37.156Z,20.6
2019-02-11T08:16:21.399Z,20.6
2019-02-11T08:17:10.969Z,20.6
2019-02-11T08:18:02.957Z,20.6
2019-02-11T08:18:50.766Z,20.6
2019-02-11T08:19:41.110Z,20.6
2019-02-11T08:20:30.848Z,20.6
2019-02-11T08:21:21.443Z,20.6
2019-02-11T08:22:10.488Z,20.6
2019-02-11T08:23:00.258Z,20.6
2019-02-11T08:23:50.935Z,20.6
2019-02-11T08:24:41.197Z,20.6
2019-02-11T08:25:31.275Z,20.6
2019-02-11T08:26:21.035Z,20.6
2019-02-11T08:27:11.110Z,20.6
2019-02-11T08:28:00.945Z,20.6
2019-02-11T08:28:51.473Z,20.6
2019-02-11T08:29:41.295Z,20.6
2019-02-11T08:30:31.325Z,20.6
2019-02-11T08:31:21.671Z,20.6
2019-02-11T08:32:11.975Z,20.6
2019-02-11T08:33:02.102Z,20.6
2019-02-11T08:33:51.552Z,20.7
2019-02-11T08:34:41.934Z,20.7
2019-02-11T08:35:33.341Z,20.7
2019-02-11T08:36:21.670Z,20.7
2019-02-11T08:37:11.894Z,20.7
2019-02-11T08:38:01.553Z,20.6
2019-02-11T08:38:52.449Z,20.6
2019-02-11T08:39:42.229Z,20.6
2019-02-11T08:40:31.197Z,20.6
2019-02-11T08:41:22.352Z,20.6
2019-02-11T08:42:12.404Z,20.6
2019-02-11T08:43:02.479Z,20.6
2019-02-11T08:43:52.809Z,20.6
2019-02-11T08:44:42.018Z,20.6
2019-02-11T08:45:32.651Z,20.6
2019-02-11T08:46:22.159Z,20.6
2019-02-11T08:47:13.029Z,20.6
2019-02-11T08:48:01.994Z,20.6
2019-02-11T08:48:53.076Z,20.6
2019-02-11T08:49:43.084Z,20.6
2019-02-11T08:50:33.834Z,20.6
2019-02-11T08:51:23.066Z,20.6
2019-02-11T08:52:12.548Z,20.6
2019-02-11T08:53:02.057Z,20.6
2019-02-11T08:53:52.387Z,20.6
2019-02-11T08:54:42.710Z,20.6
2019-02-11T08:55:32.787Z,20.6
2019-02-11T08:56:23.383Z,20.6
2019-02-11T08:57:13.641Z,20.6
2019-02-11T08:58:03.533Z,20.7
2019-02-11T08:58:53.338Z,20.6
2019-02-11T08:59:43.350Z,20.6
2019-02-11T09:00:33.325Z,20.6
2019-02-11T09:01:24.258Z,20.6
2019-02-11T09:02:13.816Z,20.6
2019-02-11T09:03:04.380Z,20.6
2019-02-11T09:03:53.353Z,20.6
2019-02-11T09:04:43.973Z,20.6
2019-02-11T09:05:33.476Z,20.6
2019-02-11T09:06:23.915Z,20.6
2019-02-11T09:07:13.645Z,20.6
2019-02-11T09:08:06.690Z,20.6
2019-02-11T09:08:53.693Z,20.6
2019-02-11T09:09:44.288Z,20.6
2019-02-11T09:10:34.435Z,20.6
2019-02-11T09:11:24.637Z,20.6
2019-02-11T09:12:14.712Z,20.6
2019-02-11T09:13:04.544Z,20.6
2019-02-11T09:13:55.082Z,20.6
2019-02-11T09:14:45.150Z,20.6
2019-02-11T09:15:34.707Z,20.6
2019-02-11T09:16:25.597Z,20.6
2019-02-11T09:17:17.137Z,20.6
2019-02-11T09:18:05.682Z,20.6
2019-02-11T09:18:54.866Z,20.6
2019-02-11T09:19:44.767Z,20.6
2019-02-11T09:20:34.717Z,20.6
2019-02-11T09:21:25.327Z,20.6
2019-02-11T09:22:15.099Z,20.6
2019-02-11T09:23:04.654Z,20.6
2019-02-11T09:23:55.784Z,20.7
2019-02-11T09:24:45.539Z,20.7
2019-02-11T09:25:35.889Z,20.7
2019-02-11T09:26:25.406Z,20.7
2019-02-11T09:27:16.006Z,20.6
2019-02-11T09:28:06.056Z,20.6
2019-02-11T09:28:55.598Z,20.6
2019-02-11T09:29:45.886Z,20.6
2019-02-11T09:30:35.199Z,20.6
2019-02-11T09:31:26.015Z,20.6
2019-02-11T09:32:15.791Z,20.6
2019-02-11T09:33:05.673Z,20.6
2019-02-11T09:33:55.967Z,20.6
2019-02-11T09:34:44.883Z,20.6
2019-02-11T09:35:36.345Z,20.6
2019-02-11T09:36:25.891Z,20.6
2019-02-11T09:37:16.962Z,20.6
2019-02-11T09:38:05.378Z,20.6
2019-02-11T09:38:56.266Z,20.6
2019-02-11T09:39:46.383Z,20.6
2019-02-11T09:40:36.733Z,20.6
2019-02-11T09:41:26.749Z,20.5
2019-02-11T09:42:16.879Z,20.6
2019-02-11T09:43:06.838Z,20.6
2019-02-11T09:43:56.966Z,20.6
2019-02-11T09:44:47.490Z,20.6
2019-02-11T09:45:36.475Z,20.6
2019-02-11T09:46:27.113Z,20.6
2019-02-11T09:47:17.416Z,20.6
2019-02-11T09:48:06.942Z,20.6
2019-02-11T09:48:56.492Z,20.7
2019-02-11T09:49:47.578Z,20.8
2019-02-11T09:50:36.802Z,20.8
2019-02-11T09:51:27.983Z,20.8
2019-02-11T09:52:17.197Z,20.8
2019-02-11T09:53:07.252Z,20.7
2019-02-11T09:53:57.594Z,20.6
2019-02-11T09:54:47.194Z,20.5
2019-02-11T09:55:37.692Z,20.4
2019-02-11T09:56:28.071Z,20.3
2019-02-11T09:57:17.534Z,20.2
2019-02-11T09:58:08.177Z,20.2
2019-02-11T09:58:58.072Z,20.2
2019-02-11T09:59:47.752Z,20.2
2019-02-11T10:00:37.301Z,20.2
2019-02-11T10:01:28.439Z,20.2
2019-02-11T10:02:18.458Z,20.2
2019-02-11T10:03:07.974Z,20.3
2019-02-11T10:03:57.475Z,20.3
2019-02-11T10:04:48.339Z,20.3
2019-02-11T10:07:15.244Z,20.3
2019-02-11T10:08:06.194Z,20.4
2019-02-11T10:08:56.206Z,20.4
2019-02-11T10:09:47.900Z,20.4
2019-02-11T10:10:36.641Z,20.4
2019-02-11T10:11:25.520Z,20.4
2019-02-11T10:12:24.604Z,20.5
2019-02-11T10:13:06.516Z,20.5
2019-02-11T10:13:56.272Z,20.5
2019-02-11T10:14:46.384Z,20.5
2019-02-11T10:15:35.913Z,20.5
2019-02-11T10:16:28.309Z,20.5
2019-02-11T10:17:16.493Z,20.5
2019-02-11T10:18:07.111Z,20.5
2019-02-11T10:18:56.328Z,20.5
2019-02-11T10:19:46.670Z,20.5
2019-02-11T10:20:36.213Z,20.5
2019-02-11T10:21:26.793Z,20.5
2019-02-11T10:22:16.839Z,20.5
2019-02-11T10:23:06.953Z,20.5
2019-02-11T10:23:57.235Z,20.5
2019-02-11T10:24:47.572Z,20.5
2019-02-11T10:25:36.808Z,20.4
2019-02-11T10:26:27.140Z,20.4
2019-02-11T10:27:16.965Z,20.5
2019-02-11T10:28:07.530Z,20.4
2019-02-11T10:28:57.333Z,20.4
2019-02-11T10:29:46.823Z,20.4
2019-02-11T10:30:37.741Z,20.4
2019-02-11T10:31:27.527Z,20.4
2019-02-11T10:32:18.367Z,20.4
2019-02-11T10:33:07.079Z,20.4
2019-02-11T10:33:58.207Z,20.4
2019-02-11T10:34:47.755Z,20.5
2019-02-11T10:35:46.152Z,20.5
2019-02-11T10:36:28.099Z,20.5
2019-02-11T10:37:17.877Z,20.6
2019-02-11T10:38:07.400Z,20.6
2019-02-11T10:38:57.192Z,20.6
2019-02-11T10:39:48.632Z,20.6
2019-02-11T10:40:37.614Z,20.6
2019-02-11T10:41:28.454Z,20.6
2019-02-11T10:42:18.552Z,20.6
2019-02-11T10:43:08.446Z,20.6
2019-02-11T10:43:58.371Z,20.5
2019-02-11T10:44:48.146Z,20.5
2019-02-11T10:45:42.984Z,20.5
2019-02-11T10:46:27.681Z,20.5
2019-02-11T10:47:18.061Z,20.5
2019-02-11T10:48:08.998Z,20.5
2019-02-11T10:48:58.151Z,20.5
2019-02-11T10:49:49.033Z,20.5
2019-02-11T10:50:39.201Z,20.5
2019-02-11T10:51:28.338Z,20.5
2019-02-11T10:52:18.643Z,20.4
2019-02-11T10:53:08.733Z,20.4
2019-02-11T10:53:59.058Z,20.4
2019-02-11T10:54:49.421Z,20.4
2019-02-11T10:55:38.626Z,20.4
2019-02-11T10:56:29.553Z,20.4
2019-02-11T10:57:19.014Z,20.4
2019-02-11T10:58:09.288Z,20.4
2019-02-11T10:58:59.440Z,20.4
2019-02-11T10:59:49.207Z,20.5
2019-02-11T11:00:40.058Z,20.5
2019-02-11T11:01:30.903Z,20.6
2019-02-11T11:02:18.858Z,20.6
2019-02-11T11:03:10.307Z,20.6
2019-02-11T11:03:59.478Z,20.6
2019-02-11T11:04:50.356Z,20.6
2019-02-11T11:05:39.622Z,20.6
2019-02-11T11:06:30.574Z,20.6
2019-02-11T11:07:19.717Z,20.6
2019-02-11T11:08:10.617Z,20.6
2019-02-11T11:09:00.387Z,20.5
2019-02-11T11:09:50.431Z,20.5
2019-02-11T11:10:39.387Z,20.5
2019-02-11T11:11:30.819Z,20.5
2019-02-11T11:12:19.502Z,20.5
2019-02-11T11:13:10.100Z,20.5
2019-02-11T11:14:00.237Z,20.5
2019-02-11T11:14:49.982Z,20.4
2019-02-11T11:15:40.339Z,20.4
2019-02-11T11:16:36.844Z,20.4